Time;durP1;ratioP1;P1;durP2;ratioP2;P2;SDS_P1;SDS_P2;PMS_P1;PMS_P2;Temp;Humidity;BMP_temperature;BMP_pressure;BME280_temperature;BME280_humidity;BME280_pressure;Samples;Min_cycle;Max_cycle;Signal;HPM_P1;HPM_P2
2022/07/25 00:00:34;;;;;;;3.92;2.15;;;22.60;99.90;;;;;;5017691;28;20094;-67
2022/07/25 00:02:59;;;;;;;6.22;2.20;;;22.60;99.90;;;;;;5019743;28;20096;-67
2022/07/25 00:05:25;;;;;;;5.13;2.20;;;22.60;99.90;;;;;;5017369;28;20056;-67
2022/07/25 00:07:51;;;;;;;4.93;1.98;;;22.60;99.90;;;;;;5001867;28;20109;-68
2022/07/25 00:10:19;;;;;;;4.70;2.28;;;22.60;99.90;;;;;;5015289;28;20048;-67
2022/07/25 00:12:46;;;;;;;5.50;2.05;;;22.60;99.90;;;;;;5007191;28;20043;-67
2022/07/25 00:15:12;;;;;;;6.20;2.60;;;22.60;99.90;;;;;;5016547;28;20042;-68
2022/07/25 00:17:38;;;;;;;5.60;2.70;;;22.60;99.90;;;;;;5015684;28;20046;-68
2022/07/25 00:20:05;;;;;;;4.93;2.40;;;22.60;99.90;;;;;;5001863;28;20465;-68
2022/07/25 00:22:30;;;;;;;3.97;2.35;;;22.60;99.90;;;;;;5004066;28;20048;-68
2022/07/25 00:24:56;;;;;;;8.07;2.63;;;22.60;99.90;;;;;;5018004;28;20096;-68
2022/07/25 00:27:22;;;;;;;6.65;2.47;;;22.60;99.90;;;;;;5013519;28;20366;-67
2022/07/25 00:29:47;;;;;;;5.65;2.22;;;22.60;99.90;;;;;;4995008;28;20049;-67
2022/07/25 00:32:13;;;;;;;4.25;2.20;;;22.60;99.90;;;;;;5013020;28;20591;-68
2022/07/25 00:34:39;;;;;;;6.60;2.30;;;22.60;99.90;;;;;;5006915;28;20040;-68
2022/07/25 00:37:05;;;;;;;4.78;2.35;;;22.60;99.90;;;;;;4998402;28;20095;-67
2022/07/25 00:39:30;;;;;;;4.30;2.30;;;22.60;99.90;;;;;;5007463;28;20396;-68
2022/07/25 00:41:56;;;;;;;5.90;2.42;;;22.60;99.90;;;;;;4995549;28;20046;-68
2022/07/25 00:44:30;;;;;;;4.18;2.50;;;22.60;99.90;;;;;;4983090;28;20053;-67
2022/07/25 00:46:57;;;;;;;6.05;2.58;;;22.60;99.90;;;;;;4979366;28;20054;-67
2022/07/25 00:49:23;;;;;;;7.72;2.45;;;22.60;99.90;;;;;;4980624;28;20533;-68
2022/07/25 00:51:50;;;;;;;5.80;2.40;;;22.60;99.90;;;;;;4997023;28;20765;-68
2022/07/25 00:54:19;;;;;;;5.65;2.53;;;22.60;99.90;;;;;;4985506;28;20530;-65
2022/07/25 00:56:46;;;;;;;5.65;2.90;;;22.60;99.90;;;;;;4980856;28;20402;-67
2022/07/25 00:59:12;;;;;;;6.57;2.78;;;22.60;99.90;;;;;;4996595;28;20493;-67
2022/07/25 01:01:38;;;;;;;6.95;2.72;;;22.60;99.90;;;;;;4983179;28;20050;-67
2022/07/25 01:04:04;;;;;;;4.72;2.65;;;22.60;99.90;;;;;;4978845;28;20050;-68
2022/07/25 01:06:31;;;;;;;6.75;3.45;;;22.50;99.90;;;;;;4984457;28;20045;-68
2022/07/25 01:08:57;;;;;;;7.95;3.33;;;22.50;99.90;;;;;;4981445;28;20605;-67
2022/07/25 01:11:23;;;;;;;9.68;3.53;;;22.50;99.90;;;;;;4981220;28;20046;-68
2022/07/25 01:13:49;;;;;;;5.30;2.80;;;22.50;99.90;;;;;;4997804;28;20450;-69
2022/07/25 01:16:15;;;;;;;5.30;3.20;;;22.50;99.90;;;;;;4998302;28;20077;-67
2022/07/25 01:18:41;;;;;;;7.63;3.90;;;22.50;99.90;;;;;;4997650;28;20058;-67
2022/07/25 01:21:07;;;;;;;8.63;2.92;;;22.50;99.90;;;;;;4983445;28;20075;-69
2022/07/25 01:23:33;;;;;;;7.10;3.50;;;22.40;99.90;;;;;;5000176;28;20050;-72
2022/07/25 01:25:58;;;;;;;6.78;3.33;;;22.40;99.90;;;;;;4964250;28;20494;-71
2022/07/25 01:28:24;;;;;;;5.57;3.55;;;22.40;99.90;;;;;;4982176;28;20035;-71
2022/07/25 01:30:50;;;;;;;5.78;3.10;;;22.40;99.90;;;;;;4980410;28;20495;-70
2022/07/25 01:33:20;;;;;;;6.95;3.45;;;22.30;99.90;;;;;;4981239;28;20053;-70
2022/07/25 01:35:47;;;;;;;5.30;3.40;;;22.30;99.90;;;;;;4965213;28;20039;-70
2022/07/25 01:38:13;;;;;;;8.13;3.63;;;22.30;99.90;;;;;;4981905;28;20042;-71
2022/07/25 01:40:40;;;;;;;6.78;4.15;;;22.30;99.90;;;;;;4980242;28;20121;-71
2022/07/25 01:43:06;;;;;;;10.95;3.88;;;22.30;99.90;;;;;;4996221;28;20107;-70
2022/07/25 01:45:32;;;;;;;7.70;3.70;;;22.20;99.90;;;;;;4981850;28;20046;-70
2022/07/25 01:47:58;;;;;;;8.13;3.92;;;22.20;99.90;;;;;;4982182;28;20074;-71
2022/07/25 01:50:24;;;;;;;6.75;3.58;;;22.20;99.90;;;;;;4981610;28;20135;-71
2022/07/25 01:52:50;;;;;;;7.85;3.70;;;22.20;99.90;;;;;;4980910;28;20050;-70
2022/07/25 01:55:18;;;;;;;7.63;3.72;;;22.10;99.90;;;;;;4993457;28;20578;-69
2022/07/25 01:57:44;;;;;;;6.53;3.50;;;22.10;99.90;;;;;;4995368;28;20120;-70
2022/07/25 02:00:12;;;;;;;6.53;3.63;;;22.00;99.90;;;;;;4984615;28;20046;-71
2022/07/25 02:02:42;;;;;;;8.25;3.60;;;22.00;99.90;;;;;;4985047;28;20499;-70
2022/07/25 02:05:09;;;;;;;7.95;3.55;;;21.90;99.90;;;;;;4988709;28;20474;-70
2022/07/25 02:07:35;;;;;;;6.35;3.55;;;21.90;99.90;;;;;;4986882;28;20049;-70
2022/07/25 02:10:01;;;;;;;8.15;3.85;;;21.80;99.90;;;;;;4986527;28;20096;-69
2022/07/25 02:12:27;;;;;;;6.65;4.07;;;21.80;99.90;;;;;;5028886;28;20054;-70
2022/07/25 02:14:52;;;;;;;6.47;4.05;;;21.70;99.90;;;;;;5001876;28;20050;-70
2022/07/25 02:17:18;;;;;;;8.20;4.35;;;21.70;99.90;;;;;;4986438;28;20130;-70
2022/07/25 02:19:44;;;;;;;7.38;4.20;;;21.70;99.90;;;;;;5001249;28;20042;-71
2022/07/25 02:22:10;;;;;;;7.85;3.80;;;21.60;99.90;;;;;;4970435;28;20057;-70
2022/07/25 02:24:36;;;;;;;9.27;4.55;;;21.60;99.90;;;;;;4988274;28;20532;-70
2022/07/25 02:27:02;;;;;;;7.88;3.92;;;21.60;99.90;;;;;;4986679;28;20053;-70
2022/07/25 02:29:28;;;;;;;7.22;3.97;;;21.50;99.90;;;;;;4985690;28;20053;-70
2022/07/25 02:31:54;;;;;;;7.25;3.65;;;21.40;99.90;;;;;;4984870;28;20047;-70
2022/07/25 02:34:19;;;;;;;7.07;3.88;;;21.40;99.90;;;;;;4985507;28;20043;-70
2022/07/25 02:36:45;;;;;;;6.97;3.80;;;21.40;99.90;;;;;;4984998;28;20077;-70
2022/07/25 02:39:12;;;;;;;6.13;3.13;;;21.30;99.90;;;;;;5001335;28;20103;-70
2022/07/25 02:41:37;;;;;;;7.72;4.03;;;21.30;99.90;;;;;;4985982;28;20304;-70
2022/07/25 02:44:05;;;;;;;5.22;3.47;;;21.30;99.90;;;;;;4985777;28;20043;-70
2022/07/25 02:46:31;;;;;;;8.68;4.05;;;21.20;99.90;;;;;;4984411;28;20053;-70
2022/07/25 02:48:57;;;;;;;7.78;4.15;;;21.20;99.90;;;;;;4986813;28;20042;-70
2022/07/25 02:51:22;;;;;;;7.70;4.03;;;21.10;99.90;;;;;;5001288;28;20051;-70
2022/07/25 02:53:48;;;;;;;6.45;3.72;;;21.10;99.90;;;;;;4985110;28;20093;-70
2022/07/25 02:56:14;;;;;;;7.70;3.95;;;21.10;99.90;;;;;;4985557;28;20103;-70
2022/07/25 02:58:40;;;;;;;6.18;3.63;;;21.00;99.90;;;;;;5001956;28;20039;-70
2022/07/25 03:01:06;;;;;;;9.88;3.78;;;21.00;99.90;;;;;;4984814;28;20049;-70
2022/07/25 03:03:31;;;;;;;7.07;3.65;;;21.00;99.90;;;;;;4987000;28;20050;-70
2022/07/25 03:05:57;;;;;;;6.88;3.95;;;20.90;99.90;;;;;;4970816;28;20046;-70
2022/07/25 03:08:22;;;;;;;6.70;3.50;;;20.90;99.90;;;;;;4988097;28;20449;-68
2022/07/25 03:10:48;;;;;;;7.55;4.07;;;20.80;99.90;;;;;;4984641;28;20042;-69
2022/07/25 03:13:14;;;;;;;6.80;3.42;;;20.80;99.90;;;;;;4986722;28;20072;-70
2022/07/25 03:15:39;;;;;;;6.80;4.10;;;20.80;99.90;;;;;;4984794;28;20065;-70
2022/07/25 03:18:05;;;;;;;8.90;4.13;;;20.70;99.90;;;;;;4985107;28;20500;-71
2022/07/25 03:20:31;;;;;;;7.60;3.80;;;20.70;99.90;;;;;;5001998;28;20038;-70
2022/07/25 03:22:57;;;;;;;8.07;4.40;;;20.70;99.90;;;;;;4984887;28;20124;-70
2022/07/25 03:25:22;;;;;;;7.32;3.70;;;20.70;99.90;;;;;;4968626;28;20125;-70
2022/07/25 03:27:49;;;;;;;7.47;4.22;;;20.60;99.90;;;;;;4984264;28;20084;-69
2022/07/25 03:30:16;;;;;;;7.28;4.57;;;20.60;99.90;;;;;;4984362;28;20053;-70
2022/07/25 03:32:41;;;;;;;9.10;4.38;;;20.60;99.90;;;;;;4986195;28;20038;-68
2022/07/25 03:35:07;;;;;;;8.45;4.40;;;20.60;99.90;;;;;;4986387;28;20414;-70
2022/07/25 03:37:33;;;;;;;8.82;5.07;;;20.60;99.90;;;;;;4982153;28;20054;-70
2022/07/25 03:39:59;;;;;;;10.57;4.35;;;20.60;99.90;;;;;;4985145;28;20042;-70
2022/07/25 03:42:24;;;;;;;6.25;4.30;;;20.60;99.90;;;;;;4986187;28;20035;-70
2022/07/25 03:44:50;;;;;;;9.27;4.72;;;20.60;99.90;;;;;;4985888;28;20117;-70
2022/07/25 03:47:16;;;;;;;10.68;5.50;;;20.60;99.90;;;;;;4985223;28;20046;-70
2022/07/25 03:49:42;;;;;;;9.65;5.15;;;20.60;99.90;;;;;;4984358;28;20045;-70
2022/07/25 03:52:08;;;;;;;8.40;4.65;;;20.60;99.90;;;;;;4986760;28;20144;-70
2022/07/25 03:54:33;;;;;;;8.07;5.00;;;20.60;99.90;;;;;;4984476;28;20113;-70
2022/07/25 03:56:59;;;;;;;7.97;5.05;;;20.60;99.90;;;;;;5016842;28;20038;-70
2022/07/25 03:59:25;;;;;;;10.52;5.40;;;20.60;99.90;;;;;;4986302;28;20102;-70
2022/07/25 04:01:51;;;;;;;9.52;5.80;;;20.70;99.90;;;;;;4983851;28;20457;-71
2022/07/25 04:04:20;;;;;;;8.95;5.15;;;20.60;99.90;;;;;;4985287;28;20600;-70
2022/07/25 04:06:46;;;;;;;9.50;5.57;;;20.60;99.90;;;;;;4984018;28;20149;-71
2022/07/25 04:09:12;;;;;;;10.68;5.85;;;20.70;99.90;;;;;;4985981;28;20417;-70
2022/07/25 04:11:38;;;;;;;9.50;6.13;;;20.70;99.90;;;;;;5000025;28;20534;-70
2022/07/25 04:14:05;;;;;;;7.95;5.60;;;20.70;99.90;;;;;;4984670;28;20134;-70
2022/07/25 04:16:32;;;;;;;9.32;6.38;;;20.70;99.90;;;;;;4984051;28;20108;-71
2022/07/25 04:18:57;;;;;;;12.13;6.55;;;20.70;99.90;;;;;;5001371;28;20080;-70
2022/07/25 04:21:24;;;;;;;9.77;6.63;;;20.80;99.90;;;;;;4996958;28;20040;-71
2022/07/25 04:23:50;;;;;;;10.85;6.93;;;20.80;99.90;;;;;;4995036;28;20543;-71
2022/07/25 04:26:16;;;;;;;10.07;6.57;;;20.80;99.90;;;;;;4983857;28;20053;-71
2022/07/25 04:28:42;;;;;;;12.70;6.47;;;20.80;99.90;;;;;;4985990;28;20103;-71
2022/07/25 04:31:08;;;;;;;10.05;7.53;;;20.80;99.90;;;;;;4984063;28;20039;-71
2022/07/25 04:33:38;;;;;;;10.52;7.60;;;20.90;99.90;;;;;;4966940;28;20099;-70
2022/07/25 04:36:04;;;;;;;13.93;7.45;;;20.90;99.90;;;;;;4984457;28;20392;-71
2022/07/25 04:38:29;;;;;;;11.43;7.20;;;20.90;99.90;;;;;;4985325;28;20072;-71
2022/07/25 04:40:55;;;;;;;10.77;7.70;;;21.00;99.90;;;;;;4984242;28;20042;-71
2022/07/25 04:43:21;;;;;;;10.68;7.65;;;21.10;99.90;;;;;;5014647;28;20050;-71
2022/07/25 04:45:47;;;;;;;10.25;7.95;;;21.10;99.90;;;;;;4983703;28;20116;-71
2022/07/25 04:48:13;;;;;;;10.45;7.55;;;21.20;99.90;;;;;;4984520;28;20053;-70
2022/07/25 04:50:39;;;;;;;11.55;7.03;;;21.20;99.90;;;;;;4984787;28;20046;-71
2022/07/25 04:53:05;;;;;;;13.13;7.68;;;21.10;99.90;;;;;;4983316;28;20118;-71
2022/07/25 04:55:31;;;;;;;12.13;8.68;;;21.20;99.90;;;;;;4984033;28;20115;-71
2022/07/25 04:57:58;;;;;;;13.77;7.80;;;21.20;99.90;;;;;;4998581;28;20059;-71
2022/07/25 05:00:24;;;;;;;12.07;8.50;;;21.20;99.90;;;;;;4985934;28;20038;-71
2022/07/25 05:02:50;;;;;;;10.20;7.55;;;21.20;99.90;;;;;;4983855;28;20049;-71
2022/07/25 05:05:16;;;;;;;12.98;9.20;;;21.20;99.90;;;;;;4985713;28;20043;-70
2022/07/25 05:07:42;;;;;;;12.10;8.38;;;21.30;99.90;;;;;;4985802;28;20069;-71
2022/07/25 05:10:08;;;;;;;10.18;8.30;;;21.30;99.90;;;;;;4986866;28;20054;-71
2022/07/25 05:12:34;;;;;;;15.38;9.20;;;21.30;99.90;;;;;;4986961;28;20049;-71
2022/07/25 05:15:01;;;;;;;13.52;8.45;;;21.40;99.90;;;;;;4973017;28;20600;-71
2022/07/25 05:17:26;;;;;;;12.45;8.02;;;21.50;99.90;;;;;;4992058;28;20053;-71
2022/07/25 05:19:52;;;;;;;14.20;8.80;;;21.50;99.90;;;;;;4988281;28;20050;-71
2022/07/25 05:22:18;;;;;;;12.23;8.15;;;21.60;99.90;;;;;;4987206;28;20486;-71
2022/07/25 05:24:43;;;;;;;15.35;9.90;;;21.60;99.90;;;;;;4999366;28;20057;-71
2022/07/25 05:27:09;;;;;;;12.25;8.90;;;21.60;99.90;;;;;;4988086;28;20542;-70
2022/07/25 05:29:35;;;;;;;13.50;9.80;;;21.60;99.90;;;;;;4988317;28;20051;-71
2022/07/25 05:32:00;;;;;;;12.82;9.50;;;21.60;99.90;;;;;;4987797;28;20046;-71
2022/07/25 05:34:26;;;;;;;16.10;9.85;;;21.60;99.90;;;;;;4970104;28;20130;-71
2022/07/25 05:36:52;;;;;;;15.18;10.48;;;21.60;99.90;;;;;;4985884;28;20160;-71
2022/07/25 05:39:18;;;;;;;14.60;9.73;;;21.60;99.90;;;;;;4987844;28;20479;-71
2022/07/25 05:41:43;;;;;;;15.52;9.60;;;21.60;99.90;;;;;;4986718;28;20034;-70
2022/07/25 05:44:09;;;;;;;14.10;9.60;;;21.60;99.90;;;;;;4995418;28;20042;-70
2022/07/25 05:46:35;;;;;;;12.43;9.63;;;21.60;99.90;;;;;;4986667;28;20084;-70
2022/07/25 05:49:01;;;;;;;14.57;9.50;;;21.60;99.90;;;;;;4990348;28;20042;-70
2022/07/25 05:51:27;;;;;;;14.48;9.88;;;21.60;99.90;;;;;;5011293;28;21085;-70
2022/07/25 05:53:52;;;;;;;13.43;9.70;;;21.70;99.90;;;;;;5022003;28;20459;-70
2022/07/25 05:56:19;;;;;;;14.32;10.77;;;21.70;99.90;;;;;;5013350;28;20103;-71
2022/07/25 05:58:45;;;;;;;13.68;10.15;;;21.80;99.90;;;;;;5016869;28;21462;-71
2022/07/25 06:01:15;;;;;;;13.93;11.07;;;21.80;99.90;;;;;;4995141;28;20058;-70
2022/07/25 06:03:41;;;;;;;16.02;10.63;;;21.80;99.90;;;;;;4997780;28;20044;-70
2022/07/25 06:06:10;;;;;;;14.35;10.38;;;21.90;99.90;;;;;;5027362;28;20055;-71
2022/07/25 06:08:37;;;;;;;15.70;10.27;;;21.90;99.90;;;;;;5026193;28;20149;-71
2022/07/25 06:11:04;;;;;;;17.52;10.93;;;22.00;99.90;;;;;;4998824;28;20384;-70
2022/07/25 06:13:31;;;;;;;12.75;9.32;;;22.00;99.90;;;;;;5029394;28;20074;-71
2022/07/25 06:15:56;;;;;;;14.70;9.80;;;22.10;99.90;;;;;;5019634;28;20039;-71
2022/07/25 06:18:23;;;;;;;14.73;10.80;;;22.10;99.90;;;;;;5022309;28;20058;-70
2022/07/25 06:20:49;;;;;;;15.88;10.60;;;22.20;99.90;;;;;;5021613;28;20176;-71
2022/07/25 06:23:16;;;;;;;17.05;10.35;;;22.20;99.90;;;;;;5007430;28;20698;-70
2022/07/25 06:25:42;;;;;;;14.20;10.50;;;22.20;99.90;;;;;;5025547;28;20052;-70
2022/07/25 06:28:08;;;;;;;14.45;9.57;;;22.30;99.90;;;;;;5026599;28;20113;-70
2022/07/25 06:30:34;;;;;;;13.90;10.60;;;22.40;99.90;;;;;;5028727;28;20131;-71
2022/07/25 06:33:00;;;;;;;15.38;9.82;;;22.50;99.90;;;;;;5015459;28;20833;-71
2022/07/25 06:35:25;;;;;;;17.33;10.93;;;22.60;99.90;;;;;;5023527;28;20046;-71
2022/07/25 06:37:51;;;;;;;14.25;9.52;;;22.70;99.90;;;;;;5029002;28;20046;-71
2022/07/25 06:40:17;;;;;;;13.57;9.25;;;22.70;99.90;;;;;;5025584;28;20089;-68
2022/07/25 06:42:45;;;;;;;13.88;10.88;;;22.70;99.90;;;;;;5021543;28;20088;-71
2022/07/25 06:45:12;;;;;;;14.45;9.60;;;22.80;99.90;;;;;;5020047;28;21483;-70
2022/07/25 06:47:39;;;;;;;14.80;9.90;;;22.80;99.90;;;;;;5022703;28;20089;-69
2022/07/25 06:50:05;;;;;;;12.20;9.30;;;22.80;99.90;;;;;;5022995;28;20062;-70
2022/07/25 06:52:31;;;;;;;13.18;9.07;;;22.90;99.90;;;;;;5001503;28;20082;-70
2022/07/25 06:54:57;;;;;;;12.00;9.32;;;22.90;99.90;;;;;;5015292;28;20601;-70
2022/07/25 06:57:23;;;;;;;13.18;9.70;;;22.90;99.90;;;;;;5024634;28;20040;-71
2022/07/25 06:59:48;;;;;;;13.80;9.07;;;23.00;99.90;;;;;;5021099;28;20042;-71
2022/07/25 07:02:14;;;;;;;11.70;9.35;;;23.10;99.90;;;;;;4998730;28;20137;-70
2022/07/25 07:04:40;;;;;;;12.18;9.10;;;23.30;99.90;;;;;;5021116;28;20053;-70
2022/07/25 07:07:05;;;;;;;12.90;8.80;;;23.40;99.90;;;;;;5010479;28;20054;-70
2022/07/25 07:09:31;;;;;;;14.10;9.30;;;23.40;99.90;;;;;;5018405;28;20068;-70
2022/07/25 07:11:57;;;;;;;14.48;9.13;;;23.50;99.90;;;;;;5004516;28;20461;-70
2022/07/25 07:14:23;;;;;;;11.52;8.63;;;23.50;99.90;;;;;;5002729;28;20043;-70
2022/07/25 07:16:49;;;;;;;13.98;8.40;;;23.60;99.90;;;;;;4985579;28;20500;-70
2022/07/25 07:19:14;;;;;;;12.20;8.32;;;23.60;99.90;;;;;;5001001;28;20059;-71
2022/07/25 07:21:40;;;;;;;10.75;8.18;;;23.60;99.90;;;;;;4997915;28;20061;-71
2022/07/25 07:24:07;;;;;;;15.63;8.52;;;23.50;99.90;;;;;;4996665;28;20050;-71
2022/07/25 07:26:33;;;;;;;14.48;8.23;;;23.60;99.90;;;;;;4996744;28;20050;-71
2022/07/25 07:28:59;;;;;;;14.52;8.73;;;23.60;99.90;;;;;;4999317;28;20034;-70
2022/07/25 07:31:25;;;;;;;12.63;7.47;;;23.80;99.90;;;;;;5017333;28;20150;-70
2022/07/25 07:33:50;;;;;;;11.50;8.32;;;24.20;99.90;;;;;;5018293;28;20060;-71
2022/07/25 07:36:16;;;;;;;12.88;8.60;;;24.50;99.90;;;;;;4996569;28;20046;-71
2022/07/25 07:38:48;;;;;;;12.48;7.57;;;24.80;99.90;;;;;;4992986;28;20517;-70
2022/07/25 07:41:14;;;;;;;12.43;7.78;;;24.80;99.90;;;;;;5023460;28;20058;-70
2022/07/25 07:43:40;;;;;;;13.63;7.32;;;24.80;99.90;;;;;;5003355;28;20038;-71
2022/07/25 07:46:06;;;;;;;10.85;7.85;;;24.80;99.90;;;;;;4999165;28;20449;-70
2022/07/25 07:48:32;;;;;;;14.05;7.45;;;25.00;99.90;;;;;;5015358;28;20103;-69
2022/07/25 07:50:59;;;;;;;11.43;7.97;;;25.30;99.90;;;;;;5012202;28;20467;-70
2022/07/25 07:55:42;;;;;;;12.45;7.80;;;25.80;99.90;;;;;;5008931;28;20442;-69
2022/07/25 07:56:12;;;;;;;10.82;7.35;;;26.20;99.90;;;;;;4998234;28;20454;-71
2022/07/25 07:58:37;;;;;;;8.45;6.30;;;26.40;99.90;;;;;;5004761;28;20043;-70
2022/07/25 08:01:05;;;;;;;11.95;6.43;;;26.30;99.90;;;;;;5017251;28;20435;-70
2022/07/25 08:03:31;;;;;;;10.43;5.50;;;26.20;99.90;;;;;;5023872;28;20049;-70
2022/07/25 08:05:57;;;;;;;10.18;6.00;;;26.20;99.90;;;;;;5001781;28;20038;-69
2022/07/25 08:08:23;;;;;;;11.15;5.63;;;26.20;99.90;;;;;;4996510;28;20054;-69
2022/07/25 08:10:49;;;;;;;8.32;5.30;;;26.20;99.90;;;;;;4993973;28;20052;-70
2022/07/25 08:13:21;;;;;;;8.85;4.90;;;26.20;99.90;;;;;;4986110;28;20042;-70
2022/07/25 08:15:52;;;;;;;10.02;3.47;;;26.10;99.90;;;;;;4986730;28;20445;-71
2022/07/25 08:18:18;;;;;;;7.00;3.50;;;26.10;99.90;;;;;;5000951;28;20066;-71
2022/07/25 08:20:48;;;;;;;11.18;3.35;;;26.10;99.90;;;;;;4986337;28;20067;-71
2022/07/25 08:23:15;;;;;;;6.73;3.77;;;26.00;99.90;;;;;;5014833;28;20568;-70
2022/07/25 08:25:41;;;;;;;7.10;3.13;;;25.80;99.90;;;;;;5014525;28;20050;-69
2022/07/25 08:28:07;;;;;;;7.93;3.17;;;25.50;99.90;;;;;;4981459;28;20054;-69
2022/07/25 08:30:35;;;;;;;7.97;3.20;;;25.30;99.90;;;;;;4988979;28;20050;-69
2022/07/25 08:33:03;;;;;;;5.63;2.83;;;25.10;99.90;;;;;;4994980;28;20049;-71
2022/07/25 08:35:30;;;;;;;6.53;2.60;;;24.90;99.90;;;;;;5016236;28;20143;-71
2022/07/25 08:37:56;;;;;;;9.32;3.28;;;24.70;99.90;;;;;;5008722;28;20036;-70
2022/07/25 08:40:24;;;;;;;8.45;3.10;;;24.50;99.90;;;;;;5012704;28;20082;-71
2022/07/25 08:42:51;;;;;;;6.38;3.28;;;24.40;99.90;;;;;;5015744;28;20048;-71
2022/07/25 08:45:20;;;;;;;8.90;3.10;;;24.20;99.90;;;;;;5025829;28;20046;-70
2022/07/25 08:47:48;;;;;;;6.18;3.00;;;24.10;99.90;;;;;;5007973;28;20053;-71
2022/07/25 08:50:17;;;;;;;6.03;2.80;;;24.00;99.90;;;;;;4986988;28;20039;-71
2022/07/25 08:52:48;;;;;;;6.88;3.20;;;24.00;99.90;;;;;;5003055;28;20046;-70
2022/07/25 08:55:18;;;;;;;6.60;2.90;;;23.90;99.90;;;;;;5014206;28;20422;-71
2022/07/25 08:57:46;;;;;;;7.63;2.10;;;23.90;99.90;;;;;;5014400;28;20046;-70
2022/07/25 09:00:16;;;;;;;5.18;2.17;;;23.90;99.90;;;;;;5018147;28;20512;-70
2022/07/25 09:02:42;;;;;;;6.87;1.87;;;23.90;99.90;;;;;;5023133;28;20042;-71
2022/07/25 09:05:08;;;;;;;5.70;2.03;;;24.00;99.90;;;;;;5017146;28;20617;-70
2022/07/25 09:07:36;;;;;;;3.83;1.67;;;24.30;99.90;;;;;;5004168;28;20461;-71
2022/07/25 09:10:20;;;;;;;5.05;2.03;;;24.40;99.90;;;;;;5017921;28;20347;-71
2022/07/25 09:12:54;;;;;;;4.93;1.80;;;24.40;99.90;;;;;;4994864;28;20470;-70
2022/07/25 09:15:31;;;;;;;5.55;1.85;;;24.30;99.90;;;;;;4993624;28;20048;-70
2022/07/25 09:18:00;;;;;;;6.22;1.95;;;24.10;99.90;;;;;;4993545;28;20057;-71
2022/07/25 09:20:46;;;;;;;6.10;1.95;;;23.90;99.90;;;;;;5001740;28;20126;-70
2022/07/25 09:23:14;;;;;;;5.03;1.65;;;23.90;99.90;;;;;;5010550;28;20050;-70
2022/07/25 09:25:40;;;;;;;6.60;1.50;;;23.90;99.90;;;;;;5018993;28;20407;-71
2022/07/25 09:28:11;;;;;;;5.25;1.90;;;24.00;99.90;;;;;;5014769;27;20038;-70
2022/07/25 09:30:38;;;;;;;3.63;1.60;;;24.30;99.90;;;;;;4969817;28;20567;-71
2022/07/25 09:33:04;;;;;;;6.40;1.50;;;24.50;99.90;;;;;;5001951;28;20057;-71
2022/07/25 09:35:32;;;;;;;4.93;1.80;;;24.70;99.90;;;;;;5000962;28;20038;-71
2022/07/25 09:38:12;;;;;;;4.22;1.65;;;24.70;99.90;;;;;;4985658;28;20077;-71
2022/07/25 09:40:38;;;;;;;4.20;1.70;;;24.80;99.90;;;;;;4987387;28;20255;-71
2022/07/25 09:43:04;;;;;;;4.88;1.63;;;24.80;99.90;;;;;;4986674;28;20533;-71
2022/07/25 09:45:30;;;;;;;4.78;2.00;;;24.90;99.90;;;;;;4985647;28;20189;-70
2022/07/25 09:48:02;;;;;;;5.63;1.98;;;25.00;99.90;;;;;;4986835;28;20741;-71
2022/07/25 09:50:30;;;;;;;8.13;2.00;;;25.00;99.90;;;;;;5002254;28;20050;-71
2022/07/25 09:52:59;;;;;;;4.47;1.80;;;25.00;99.90;;;;;;4987056;28;20492;-70
2022/07/25 09:55:25;;;;;;;5.72;2.08;;;24.90;99.90;;;;;;4985308;28;20076;-71
2022/07/25 09:57:51;;;;;;;7.82;2.30;;;24.90;99.90;;;;;;4988049;28;20123;-71
2022/07/25 10:00:23;;;;;;;3.75;1.92;;;24.80;99.90;;;;;;4986417;28;20058;-71
2022/07/25 10:02:54;;;;;;;7.10;2.35;;;24.60;99.90;;;;;;5016179;28;20419;-71
2022/07/25 10:05:29;;;;;;;6.05;2.10;;;24.60;99.90;;;;;;4985932;28;20054;-70
2022/07/25 10:07:56;;;;;;;5.22;2.40;;;24.60;99.90;;;;;;4985550;28;20103;-71
2022/07/25 10:10:30;;;;;;;5.97;2.30;;;24.90;99.90;;;;;;4986232;28;20042;-71
2022/07/25 10:13:09;;;;;;;4.30;2.05;;;25.00;99.90;;;;;;5002702;28;20109;-71
2022/07/25 10:15:48;;;;;;;6.05;2.22;;;24.90;99.90;;;;;;4986115;28;20077;-71
2022/07/25 10:18:16;;;;;;;4.90;2.10;;;24.70;99.90;;;;;;5001995;28;20076;-71
2022/07/25 10:20:44;;;;;;;4.30;1.90;;;24.60;99.90;;;;;;4986998;28;20058;-72
2022/07/25 10:23:26;;;;;;;6.53;2.50;;;24.60;99.90;;;;;;4987287;28;20556;-71
2022/07/25 10:26:05;;;;;;;5.68;2.33;;;24.40;99.90;;;;;;4970497;28;20066;-71
2022/07/25 10:28:40;;;;;;;7.57;2.28;;;24.20;99.90;;;;;;4986194;28;20124;-70
2022/07/25 10:31:36;;;;;;;6.10;2.13;;;24.00;99.90;;;;;;4985482;28;20503;-70
2022/07/25 10:34:04;;;;;;;6.88;2.10;;;23.90;99.90;;;;;;4985548;28;20045;-71
2022/07/25 10:36:50;;;;;;;10.00;1.98;;;23.70;99.90;;;;;;5002360;28;20042;-71
2022/07/25 10:39:20;;;;;;;5.15;1.98;;;23.60;99.90;;;;;;4987084;28;20038;-70
2022/07/25 10:41:52;;;;;;;8.48;2.08;;;23.60;99.90;;;;;;4986361;28;20070;-71
2022/07/25 10:44:18;;;;;;;5.28;1.73;;;23.70;99.90;;;;;;4985972;28;20050;-70
2022/07/25 10:46:44;;;;;;;6.70;2.03;;;23.80;99.90;;;;;;4986820;28;20569;-70
2022/07/25 10:49:38;;;;;;;7.93;1.83;;;24.00;99.90;;;;;;4985638;28;20050;-71
2022/07/25 10:52:04;;;;;;;9.32;1.80;;;24.20;99.90;;;;;;4986225;28;20085;-71
2022/07/25 10:54:38;;;;;;;9.30;2.17;;;24.50;99.90;;;;;;4985681;28;20042;-71
2022/07/25 10:57:05;;;;;;;6.90;1.88;;;24.80;99.90;;;;;;4985880;28;20051;-70
2022/07/25 10:59:33;;;;;;;5.78;1.90;;;25.10;99.90;;;;;;5001127;28;20522;-71
2022/07/25 11:01:59;;;;;;;8.10;1.85;;;25.20;99.90;;;;;;4987066;28;20050;-71
2022/07/25 11:04:25;;;;;;;7.55;1.77;;;25.10;99.90;;;;;;4985792;28;20042;-71
2022/07/25 11:06:51;;;;;;;9.00;1.98;;;24.90;99.90;;;;;;4985004;28;20137;-71
2022/07/25 11:09:18;;;;;;;7.10;2.17;;;24.60;99.90;;;;;;5002604;28;20158;-70
2022/07/25 11:11:49;;;;;;;10.50;2.13;;;24.50;99.90;;;;;;5002857;28;20045;-70
2022/07/25 11:14:18;;;;;;;8.82;2.08;;;24.40;99.90;;;;;;4986438;28;20042;-71
2022/07/25 11:16:46;;;;;;;8.05;2.22;;;24.50;99.90;;;;;;4970027;28;20559;-71
2022/07/25 11:19:30;;;;;;;9.55;2.13;;;24.60;99.90;;;;;;4985900;28;20515;-71
2022/07/25 11:21:58;;;;;;;9.57;2.05;;;24.80;99.90;;;;;;4985902;28;20595;-71
2022/07/25 11:24:42;;;;;;;7.05;2.15;;;25.00;99.90;;;;;;4986403;28;20042;-71
2022/07/25 11:27:10;;;;;;;7.72;2.03;;;25.40;99.90;;;;;;4985250;28;20089;-71
2022/07/25 11:29:37;;;;;;;13.10;2.58;;;25.80;99.90;;;;;;4986256;28;20042;-71
2022/07/25 11:32:08;;;;;;;9.80;1.98;;;25.80;99.90;;;;;;4969255;28;20051;-70
2022/07/25 11:34:40;;;;;;;11.82;2.35;;;25.60;99.90;;;;;;4984415;28;20035;-70
2022/07/25 11:37:08;;;;;;;8.45;2.50;;;25.30;99.90;;;;;;4984819;28;20034;-71
2022/07/25 11:39:37;;;;;;;7.57;2.20;;;25.00;99.90;;;;;;4969322;28;20103;-71
2022/07/25 11:42:06;;;;;;;6.85;2.22;;;24.80;99.90;;;;;;4985254;28;20062;-69
2022/07/25 11:44:37;;;;;;;9.10;1.92;;;24.80;99.90;;;;;;4986041;28;20098;-71
2022/07/25 11:47:08;;;;;;;10.05;2.30;;;24.90;99.90;;;;;;4968812;28;20125;-70
2022/07/25 11:49:48;;;;;;;8.27;1.83;;;25.20;99.90;;;;;;4984495;28;20118;-71
2022/07/25 11:52:22;;;;;;;8.98;2.05;;;25.30;99.90;;;;;;4986559;28;20034;-70
2022/07/25 11:55:01;;;;;;;10.52;2.00;;;25.50;99.90;;;;;;4968631;28;20054;-70
2022/07/25 11:57:29;;;;;;;6.95;2.05;;;25.50;99.90;;;;;;4986022;28;20034;-69
2022/07/25 11:59:56;;;;;;;9.38;1.77;;;25.50;99.90;;;;;;5001212;28;20047;-70
2022/07/25 12:02:31;;;;;;;9.38;2.35;;;25.50;99.90;;;;;;4983850;28;20077;-72
2022/07/25 12:05:02;;;;;;;8.40;1.73;;;25.40;99.90;;;;;;4968818;28;20034;-72
2022/07/25 12:07:35;;;;;;;6.88;1.80;;;25.30;99.90;;;;;;4984853;28;20137;-70
2022/07/25 12:10:01;;;;;;;10.93;2.00;;;25.20;99.90;;;;;;4984364;28;20061;-72
2022/07/25 12:12:27;;;;;;;8.68;2.33;;;25.00;99.90;;;;;;4984541;28;20047;-71
2022/07/25 12:14:52;;;;;;;14.73;2.58;;;25.00;99.90;;;;;;4984756;28;20050;-71
2022/07/25 12:17:18;;;;;;;14.15;2.20;;;25.20;99.90;;;;;;4986723;28;20141;-72
2022/07/25 12:19:48;;;;;;;14.07;1.98;;;25.50;99.90;;;;;;5005031;28;20562;-72
2022/07/25 12:22:14;;;;;;;10.20;1.92;;;25.50;99.90;;;;;;4989281;28;20042;-71
2022/07/25 12:24:39;;;;;;;10.68;2.03;;;25.70;99.90;;;;;;5003876;28;20047;-71
2022/07/25 12:27:05;;;;;;;7.63;2.17;;;25.90;99.90;;;;;;5003904;28;20074;-70
2022/07/25 12:29:31;;;;;;;10.02;2.00;;;25.80;99.90;;;;;;4988101;28;20762;-71
2022/07/25 12:31:56;;;;;;;9.82;2.08;;;25.70;99.90;;;;;;4987720;28;20452;-72
2022/07/25 12:34:22;;;;;;;8.48;1.90;;;25.50;99.90;;;;;;5003221;28;20046;-71
2022/07/25 12:36:48;;;;;;;8.73;2.10;;;25.30;99.90;;;;;;4988089;28;20070;-72
2022/07/25 12:39:14;;;;;;;12.32;2.30;;;25.10;99.90;;;;;;4987272;28;20049;-71
2022/07/25 12:41:41;;;;;;;9.45;1.92;;;24.90;99.90;;;;;;4967374;28;20050;-71
2022/07/25 12:44:07;;;;;;;7.22;1.73;;;24.70;99.90;;;;;;4981048;28;20062;-72